sensor_id;sensor_type;location;lat;lon;timestamp;temperature;humidity
71082;SHT31;58740;50.672;18.690;2023-03-05T00:01:28;1.35;65.14
71082;SHT31;58740;50.672;18.690;2023-03-05T00:04:01;1.35;64.79
71082;SHT31;58740;50.672;18.690;2023-03-05T00:06:32;1.34;64.82
71082;SHT31;58740;50.672;18.690;2023-03-05T00:09:00;1.33;65.55
71082;SHT31;58740;50.672;18.690;2023-03-05T00:11:28;1.32;65.73
71082;SHT31;58740;50.672;18.690;2023-03-05T00:13:59;1.31;65.77
71082;SHT31;58740;50.672;18.690;2023-03-05T00:16:30;1.29;66.07
71082;SHT31;58740;50.672;18.690;2023-03-05T00:18:59;1.28;66.26
71082;SHT31;58740;50.672;18.690;2023-03-05T00:21:28;1.27;66.45
71082;SHT31;58740;50.672;18.690;2023-03-05T00:24:01;1.26;66.44
71082;SHT31;58740;50.672;18.690;2023-03-05T00:26:33;1.27;66.35
71082;SHT31;58740;50.672;18.690;2023-03-05T00:29:04;1.25;66.46
71082;SHT31;58740;50.672;18.690;2023-03-05T00:31:34;1.24;66.50
71082;SHT31;58740;50.672;18.690;2023-03-05T00:34:04;1.25;66.58
71082;SHT31;58740;50.672;18.690;2023-03-05T00:36:39;1.25;66.50
71082;SHT31;58740;50.672;18.690;2023-03-05T00:39:10;1.26;66.47
71082;SHT31;58740;50.672;18.690;2023-03-05T00:41:40;1.25;66.65
71082;SHT31;58740;50.672;18.690;2023-03-05T00:44:07;1.23;66.69
71082;SHT31;58740;50.672;18.690;2023-03-05T00:46:36;1.23;66.67
71082;SHT31;58740;50.672;18.690;2023-03-05T00:49:04;1.22;66.72
71082;SHT31;58740;50.672;18.690;2023-03-05T00:51:33;1.20;66.66
71082;SHT31;58740;50.672;18.690;2023-03-05T00:54:01;1.20;66.64
71082;SHT31;58740;50.672;18.690;2023-03-05T00:56:30;1.21;66.50
71082;SHT31;58740;50.672;18.690;2023-03-05T00:58:57;1.25;66.76
71082;SHT31;58740;50.672;18.690;2023-03-05T01:01:25;1.29;66.66
71082;SHT31;58740;50.672;18.690;2023-03-05T01:03:54;1.31;66.67
71082;SHT31;58740;50.672;18.690;2023-03-05T01:06:27;1.32;66.78
71082;SHT31;58740;50.672;18.690;2023-03-05T01:08:55;1.34;66.58
71082;SHT31;58740;50.672;18.690;2023-03-05T01:11:24;1.35;66.59
71082;SHT31;58740;50.672;18.690;2023-03-05T01:13:51;1.37;66.72
71082;SHT31;58740;50.672;18.690;2023-03-05T01:16:19;1.36;66.71
71082;SHT31;58740;50.672;18.690;2023-03-05T01:18:47;1.36;66.73
71082;SHT31;58740;50.672;18.690;2023-03-05T01:21:15;1.33;66.69
71082;SHT31;58740;50.672;18.690;2023-03-05T01:23:42;1.33;67.02
71082;SHT31;58740;50.672;18.690;2023-03-05T01:26:10;1.34;67.22
71082;SHT31;58740;50.672;18.690;2023-03-05T01:28:38;1.33;67.10
71082;SHT31;58740;50.672;18.690;2023-03-05T01:31:07;1.32;67.07
71082;SHT31;58740;50.672;18.690;2023-03-05T01:33:37;1.29;66.92
71082;SHT31;58740;50.672;18.690;2023-03-05T01:36:06;1.28;67.18
71082;SHT31;58740;50.672;18.690;2023-03-05T01:38:43;1.25;67.34
71082;SHT31;58740;50.672;18.690;2023-03-05T01:41:14;1.23;67.25
71082;SHT31;58740;50.672;18.690;2023-03-05T01:43:43;1.22;67.47
71082;SHT31;58740;50.672;18.690;2023-03-05T01:46:30;1.21;67.45
71082;SHT31;58740;50.672;18.690;2023-03-05T02:00:10;1.30;66.99
71082;SHT31;58740;50.672;18.690;2023-03-05T02:02:43;1.31;66.84
71082;SHT31;58740;50.672;18.690;2023-03-05T02:05:16;1.31;66.83
71082;SHT31;58740;50.672;18.690;2023-03-05T02:08:08;1.31;66.51
71082;SHT31;58740;50.672;18.690;2023-03-05T02:13:16;1.28;66.81
71082;SHT31;58740;50.672;18.690;2023-03-05T02:15:49;1.26;66.71
71082;SHT31;58740;50.672;18.690;2023-03-05T02:18:19;1.24;66.77
71082;SHT31;58740;50.672;18.690;2023-03-05T02:20:52;1.22;66.91
71082;SHT31;58740;50.672;18.690;2023-03-05T02:23:24;1.22;66.95
71082;SHT31;58740;50.672;18.690;2023-03-05T02:25:55;1.18;66.67
71082;SHT31;58740;50.672;18.690;2023-03-05T02:28:25;1.17;66.79
71082;SHT31;58740;50.672;18.690;2023-03-05T02:30:59;1.14;66.88
71082;SHT31;58740;50.672;18.690;2023-03-05T02:33:27;1.12;66.97
71082;SHT31;58740;50.672;18.690;2023-03-05T02:35:55;1.11;66.98
71082;SHT31;58740;50.672;18.690;2023-03-05T02:38:23;1.10;66.93
71082;SHT31;58740;50.672;18.690;2023-03-05T02:40:50;1.07;66.97
71082;SHT31;58740;50.672;18.690;2023-03-05T02:43:18;1.06;67.11
71082;SHT31;58740;50.672;18.690;2023-03-05T02:45:46;1.04;67.15
71082;SHT31;58740;50.672;18.690;2023-03-05T02:48:14;1.03;67.10
71082;SHT31;58740;50.672;18.690;2023-03-05T02:50:42;1.01;67.28
71082;SHT31;58740;50.672;18.690;2023-03-05T02:53:11;0.99;67.63
71082;SHT31;58740;50.672;18.690;2023-03-05T02:55:39;1.00;67.67
71082;SHT31;58740;50.672;18.690;2023-03-05T02:58:06;1.02;67.64
71082;SHT31;58740;50.672;18.690;2023-03-05T03:00:34;1.05;67.41
71082;SHT31;58740;50.672;18.690;2023-03-05T03:03:02;1.07;67.54
71082;SHT31;58740;50.672;18.690;2023-03-05T03:05:30;1.09;67.29
71082;SHT31;58740;50.672;18.690;2023-03-05T03:07:58;1.11;67.17
71082;SHT31;58740;50.672;18.690;2023-03-05T03:10:25;1.12;66.91
71082;SHT31;58740;50.672;18.690;2023-03-05T03:12:53;1.11;66.61
71082;SHT31;58740;50.672;18.690;2023-03-05T03:15:21;1.09;66.46
71082;SHT31;58740;50.672;18.690;2023-03-05T03:17:49;1.08;66.51
71082;SHT31;58740;50.672;18.690;2023-03-05T03:20:17;1.05;66.46
71082;SHT31;58740;50.672;18.690;2023-03-05T03:22:46;1.04;66.37
71082;SHT31;58740;50.672;18.690;2023-03-05T03:25:15;1.02;66.42
71082;SHT31;58740;50.672;18.690;2023-03-05T03:27:48;1.02;66.42
71082;SHT31;58740;50.672;18.690;2023-03-05T03:30:16;0.99;66.11
71082;SHT31;58740;50.672;18.690;2023-03-05T03:32:44;0.96;65.89
71082;SHT31;58740;50.672;18.690;2023-03-05T03:35:14;0.92;66.01
71082;SHT31;58740;50.672;18.690;2023-03-05T03:37:41;0.90;66.06
71082;SHT31;58740;50.672;18.690;2023-03-05T03:40:09;0.89;65.73
71082;SHT31;58740;50.672;18.690;2023-03-05T03:42:38;0.87;65.93
71082;SHT31;58740;50.672;18.690;2023-03-05T03:45:06;0.86;65.96
71082;SHT31;58740;50.672;18.690;2023-03-05T03:47:35;0.85;66.03
71082;SHT31;58740;50.672;18.690;2023-03-05T03:50:03;0.82;65.94
71082;SHT31;58740;50.672;18.690;2023-03-05T03:52:31;0.80;65.89
71082;SHT31;58740;50.672;18.690;2023-03-05T03:54:59;0.77;65.67
71082;SHT31;58740;50.672;18.690;2023-03-05T03:57:28;0.75;65.83
71082;SHT31;58740;50.672;18.690;2023-03-05T03:59:57;0.73;65.81
71082;SHT31;58740;50.672;18.690;2023-03-05T04:02:26;0.71;65.94
71082;SHT31;58740;50.672;18.690;2023-03-05T04:04:54;0.70;65.90
71082;SHT31;58740;50.672;18.690;2023-03-05T04:07:22;0.68;65.76
71082;SHT31;58740;50.672;18.690;2023-03-05T04:09:50;0.68;65.72
71082;SHT31;58740;50.672;18.690;2023-03-05T04:12:18;0.68;65.68
71082;SHT31;58740;50.672;18.690;2023-03-05T04:14:46;0.70;65.76
71082;SHT31;58740;50.672;18.690;2023-03-05T04:17:15;0.73;66.21
71082;SHT31;58740;50.672;18.690;2023-03-05T04:19:43;0.75;66.05
71082;SHT31;58740;50.672;18.690;2023-03-05T04:22:12;0.75;66.06
71082;SHT31;58740;50.672;18.690;2023-03-05T04:24:43;0.74;66.11
71082;SHT31;58740;50.672;18.690;2023-03-05T04:27:11;0.73;66.12
71082;SHT31;58740;50.672;18.690;2023-03-05T04:29:39;0.70;66.30
71082;SHT31;58740;50.672;18.690;2023-03-05T04:32:06;0.68;66.44
71082;SHT31;58740;50.672;18.690;2023-03-05T04:34:35;0.65;66.76
71082;SHT31;58740;50.672;18.690;2023-03-05T04:37:04;0.63;67.11
71082;SHT31;58740;50.672;18.690;2023-03-05T04:39:32;0.60;67.40
71082;SHT31;58740;50.672;18.690;2023-03-05T04:42:00;0.56;67.87
71082;SHT31;58740;50.672;18.690;2023-03-05T04:44:27;0.54;68.04
71082;SHT31;58740;50.672;18.690;2023-03-05T04:46:55;0.50;68.34
71082;SHT31;58740;50.672;18.690;2023-03-05T04:49:23;0.47;68.50
71082;SHT31;58740;50.672;18.690;2023-03-05T04:51:51;0.47;68.73
71082;SHT31;58740;50.672;18.690;2023-03-05T04:54:18;0.49;68.91
71082;SHT31;58740;50.672;18.690;2023-03-05T04:56:46;0.53;69.29
71082;SHT31;58740;50.672;18.690;2023-03-05T04:59:14;0.56;69.31
71082;SHT31;58740;50.672;18.690;2023-03-05T05:01:42;0.59;69.36
71082;SHT31;58740;50.672;18.690;2023-03-05T05:04:10;0.60;69.49
71082;SHT31;58740;50.672;18.690;2023-03-05T05:06:38;0.61;69.52
71082;SHT31;58740;50.672;18.690;2023-03-05T05:09:05;0.58;69.63
71082;SHT31;58740;50.672;18.690;2023-03-05T05:11:33;0.56;69.71
71082;SHT31;58740;50.672;18.690;2023-03-05T05:14:01;0.57;69.90
71082;SHT31;58740;50.672;18.690;2023-03-05T05:16:28;0.56;69.91
71082;SHT31;58740;50.672;18.690;2023-03-05T05:18:56;0.56;70.01
71082;SHT31;58740;50.672;18.690;2023-03-05T05:21:24;0.53;70.10
71082;SHT31;58740;50.672;18.690;2023-03-05T05:23:52;0.49;70.15
71082;SHT31;58740;50.672;18.690;2023-03-05T05:26:20;0.48;70.29
71082;SHT31;58740;50.672;18.690;2023-03-05T05:28:48;0.46;70.39
71082;SHT31;58740;50.672;18.690;2023-03-05T05:31:15;0.43;70.59
71082;SHT31;58740;50.672;18.690;2023-03-05T05:33:44;0.41;70.70
71082;SHT31;58740;50.672;18.690;2023-03-05T05:36:16;0.41;70.97
71082;SHT31;58740;50.672;18.690;2023-03-05T05:38:45;0.45;71.05
71082;SHT31;58740;50.672;18.690;2023-03-05T05:41:14;0.50;71.01
71082;SHT31;58740;50.672;18.690;2023-03-05T05:43:44;0.55;71.22
71082;SHT31;58740;50.672;18.690;2023-03-05T05:46:14;0.58;71.19
71082;SHT31;58740;50.672;18.690;2023-03-05T05:48:45;0.60;71.18
71082;SHT31;58740;50.672;18.690;2023-03-05T05:51:17;0.60;71.21
71082;SHT31;58740;50.672;18.690;2023-03-05T05:53:48;0.60;71.25
71082;SHT31;58740;50.672;18.690;2023-03-05T05:56:17;0.59;71.27
71082;SHT31;58740;50.672;18.690;2023-03-05T05:58:46;0.57;71.54
71082;SHT31;58740;50.672;18.690;2023-03-05T06:03:51;0.56;71.54
71082;SHT31;58740;50.672;18.690;2023-03-05T06:06:20;0.56;71.62
71082;SHT31;58740;50.672;18.690;2023-03-05T06:08:50;0.54;71.59
71082;SHT31;58740;50.672;18.690;2023-03-05T06:11:19;0.54;71.70
71082;SHT31;58740;50.672;18.690;2023-03-05T06:13:47;0.56;71.71
71082;SHT31;58740;50.672;18.690;2023-03-05T06:16:17;0.57;71.70
71082;SHT31;58740;50.672;18.690;2023-03-05T06:18:50;0.61;71.70
71082;SHT31;58740;50.672;18.690;2023-03-05T06:21:19;0.65;71.64
71082;SHT31;58740;50.672;18.690;2023-03-05T06:23:49;0.66;71.72
71082;SHT31;58740;50.672;18.690;2023-03-05T06:26:18;0.69;71.74
71082;SHT31;58740;50.672;18.690;2023-03-05T06:28:48;0.71;71.71
71082;SHT31;58740;50.672;18.690;2023-03-05T06:31:20;0.72;71.80
71082;SHT31;58740;50.672;18.690;2023-03-05T06:33:54;0.72;71.91
71082;SHT31;58740;50.672;18.690;2023-03-05T06:36:24;0.70;71.99
71082;SHT31;58740;50.672;18.690;2023-03-05T06:38:53;0.69;72.07
71082;SHT31;58740;50.672;18.690;2023-03-05T06:41:22;0.68;72.23
71082;SHT31;58740;50.672;18.690;2023-03-05T06:43:55;0.67;72.29
71082;SHT31;58740;50.672;18.690;2023-03-05T06:46:27;0.67;72.35
71082;SHT31;58740;50.672;18.690;2023-03-05T06:48:59;0.67;72.34
71082;SHT31;58740;50.672;18.690;2023-03-05T06:51:33;0.68;72.41
71082;SHT31;58740;50.672;18.690;2023-03-05T06:54:05;0.70;72.46
71082;SHT31;58740;50.672;18.690;2023-03-05T06:56:36;0.77;72.47
71082;SHT31;58740;50.672;18.690;2023-03-05T06:59:07;0.82;72.44
71082;SHT31;58740;50.672;18.690;2023-03-05T07:01:36;0.87;72.31
71082;SHT31;58740;50.672;18.690;2023-03-05T07:04:05;0.89;72.35
71082;SHT31;58740;50.672;18.690;2023-03-05T07:06:34;0.93;72.43
71082;SHT31;58740;50.672;18.690;2023-03-05T07:09:05;0.95;72.38
71082;SHT31;58740;50.672;18.690;2023-03-05T07:11:36;0.95;72.35
71082;SHT31;58740;50.672;18.690;2023-03-05T07:14:04;0.95;72.35
71082;SHT31;58740;50.672;18.690;2023-03-05T07:16:32;0.95;72.34
71082;SHT31;58740;50.672;18.690;2023-03-05T07:19:02;0.93;72.49
71082;SHT31;58740;50.672;18.690;2023-03-05T07:21:33;0.92;72.60
71082;SHT31;58740;50.672;18.690;2023-03-05T07:24:06;0.91;72.69
71082;SHT31;58740;50.672;18.690;2023-03-05T07:26:35;0.91;72.75
71082;SHT31;58740;50.672;18.690;2023-03-05T07:29:03;0.92;72.88
71082;SHT31;58740;50.672;18.690;2023-03-05T07:31:31;0.93;73.01
71082;SHT31;58740;50.672;18.690;2023-03-05T07:34:00;0.96;73.00
71082;SHT31;58740;50.672;18.690;2023-03-05T07:36:29;1.02;72.94
71082;SHT31;58740;50.672;18.690;2023-03-05T07:38:57;1.03;73.04
71082;SHT31;58740;50.672;18.690;2023-03-05T07:41:25;1.06;73.18
71082;SHT31;58740;50.672;18.690;2023-03-05T07:43:53;1.08;73.10
71082;SHT31;58740;50.672;18.690;2023-03-05T07:46:24;1.09;73.15
71082;SHT31;58740;50.672;18.690;2023-03-05T07:48:57;1.10;73.21
71082;SHT31;58740;50.672;18.690;2023-03-05T07:51:25;1.13;73.28
71082;SHT31;58740;50.672;18.690;2023-03-05T07:53:55;1.13;73.43
71082;SHT31;58740;50.672;18.690;2023-03-05T07:56:26;1.14;73.54
71082;SHT31;58740;50.672;18.690;2023-03-05T07:59:03;1.14;73.62
71082;SHT31;58740;50.672;18.690;2023-03-05T08:01:34;1.17;73.71
71082;SHT31;58740;50.672;18.690;2023-03-05T08:04:03;1.21;73.74
71082;SHT31;58740;50.672;18.690;2023-03-05T08:06:33;1.24;73.77
71082;SHT31;58740;50.672;18.690;2023-03-05T08:09:01;1.27;73.74
71082;SHT31;58740;50.672;18.690;2023-03-05T08:11:28;1.32;73.70
71082;SHT31;58740;50.672;18.690;2023-03-05T08:13:56;1.34;73.76
71082;SHT31;58740;50.672;18.690;2023-03-05T08:16:25;1.36;73.77
71082;SHT31;58740;50.672;18.690;2023-03-05T08:18:54;1.36;73.80
71082;SHT31;58740;50.672;18.690;2023-03-05T08:21:27;1.37;73.85
71082;SHT31;58740;50.672;18.690;2023-03-05T08:24:04;1.37;73.87
71082;SHT31;58740;50.672;18.690;2023-03-05T08:26:35;1.38;73.89
71082;SHT31;58740;50.672;18.690;2023-03-05T08:29:05;1.38;73.93
71082;SHT31;58740;50.672;18.690;2023-03-05T08:31:35;1.39;74.01
71082;SHT31;58740;50.672;18.690;2023-03-05T08:34:04;1.38;74.07
71082;SHT31;58740;50.672;18.690;2023-03-05T08:36:32;1.42;74.14
71082;SHT31;58740;50.672;18.690;2023-03-05T08:39:00;1.47;74.20
71082;SHT31;58740;50.672;18.690;2023-03-05T08:41:28;1.49;74.28
71082;SHT31;58740;50.672;18.690;2023-03-05T08:43:56;1.50;74.41
71082;SHT31;58740;50.672;18.690;2023-03-05T08:46:23;1.50;74.57
71082;SHT31;58740;50.672;18.690;2023-03-05T08:48:52;1.45;74.70
71082;SHT31;58740;50.672;18.690;2023-03-05T08:51:21;1.40;74.86
71082;SHT31;58740;50.672;18.690;2023-03-05T08:53:54;1.35;75.18
71082;SHT31;58740;50.672;18.690;2023-03-05T08:56:25;1.32;75.49
71082;SHT31;58740;50.672;18.690;2023-03-05T08:58:54;1.29;75.77
71082;SHT31;58740;50.672;18.690;2023-03-05T09:01:23;1.26;76.33
71082;SHT31;58740;50.672;18.690;2023-03-05T09:03:51;1.23;76.25
71082;SHT31;58740;50.672;18.690;2023-03-05T09:06:19;1.25;76.20
71082;SHT31;58740;50.672;18.690;2023-03-05T09:08:47;1.25;76.34
71082;SHT31;58740;50.672;18.690;2023-03-05T09:11:15;1.27;76.34
71082;SHT31;58740;50.672;18.690;2023-03-05T09:13:42;1.28;76.46
71082;SHT31;58740;50.672;18.690;2023-03-05T09:16:12;1.32;76.48
71082;SHT31;58740;50.672;18.690;2023-03-05T09:18:43;1.36;76.50
71082;SHT31;58740;50.672;18.690;2023-03-05T09:21:13;1.40;76.51
71082;SHT31;58740;50.672;18.690;2023-03-05T09:23:43;1.42;76.64
71082;SHT31;58740;50.672;18.690;2023-03-05T09:26:14;1.41;76.75
71082;SHT31;58740;50.672;18.690;2023-03-05T09:28:46;1.44;76.71
71082;SHT31;58740;50.672;18.690;2023-03-05T09:31:14;1.47;76.65
71082;SHT31;58740;50.672;18.690;2023-03-05T09:33:43;1.56;76.62
71082;SHT31;58740;50.672;18.690;2023-03-05T09:36:21;1.63;76.50
71082;SHT31;58740;50.672;18.690;2023-03-05T09:38:52;1.68;76.52
71082;SHT31;58740;50.672;18.690;2023-03-05T09:41:24;1.70;76.53
71082;SHT31;58740;50.672;18.690;2023-03-05T09:46:53;1.76;76.40
71082;SHT31;58740;50.672;18.690;2023-03-05T09:49:31;1.77;76.42
71082;SHT31;58740;50.672;18.690;2023-03-05T09:52:45;1.78;76.51
71082;SHT31;58740;50.672;18.690;2023-03-05T09:55:26;1.78;76.50
71082;SHT31;58740;50.672;18.690;2023-03-05T09:58:05;1.80;76.40
71082;SHT31;58740;50.672;18.690;2023-03-05T10:00:59;1.84;76.27
71082;SHT31;58740;50.672;18.690;2023-03-05T10:06:30;2.01;75.89
71082;SHT31;58740;50.672;18.690;2023-03-05T10:09:05;2.05;75.68
71082;SHT31;58740;50.672;18.690;2023-03-05T10:11:50;2.08;75.45
71082;SHT31;58740;50.672;18.690;2023-03-05T10:14:33;2.08;75.39
71082;SHT31;58740;50.672;18.690;2023-03-05T10:17:26;2.11;75.19
71082;SHT31;58740;50.672;18.690;2023-03-05T10:34:38;2.34;74.51
71082;SHT31;58740;50.672;18.690;2023-03-05T10:45:57;2.18;73.52
71082;SHT31;58740;50.672;18.690;2023-03-05T10:51:17;2.04;73.19
71082;SHT31;58740;50.672;18.690;2023-03-05T10:53:56;1.99;73.15
71082;SHT31;58740;50.672;18.690;2023-03-05T10:56:28;1.99;73.34
71082;SHT31;58740;50.672;18.690;2023-03-05T10:58:58;2.00;73.31
71082;SHT31;58740;50.672;18.690;2023-03-05T11:01:26;2.02;73.41
71082;SHT31;58740;50.672;18.690;2023-03-05T11:04:27;2.06;73.46
71082;SHT31;58740;50.672;18.690;2023-03-05T11:07:05;2.05;72.67
71082;SHT31;58740;50.672;18.690;2023-03-05T11:09:42;2.01;72.48
71082;SHT31;58740;50.672;18.690;2023-03-05T11:12:41;2.02;72.43
71082;SHT31;58740;50.672;18.690;2023-03-05T11:17:45;2.07;72.27
71082;SHT31;58740;50.672;18.690;2023-03-05T11:20:34;2.13;72.46
71082;SHT31;58740;50.672;18.690;2023-03-05T11:23:05;2.17;72.44
71082;SHT31;58740;50.672;18.690;2023-03-05T11:36:35;2.33;70.70
71082;SHT31;58740;50.672;18.690;2023-03-05T11:41:53;2.27;71.22
71082;SHT31;58740;50.672;18.690;2023-03-05T11:47:42;2.20;70.70
71082;SHT31;58740;50.672;18.690;2023-03-05T11:50:20;2.17;70.19
71082;SHT31;58740;50.672;18.690;2023-03-05T11:52:51;2.16;69.51
71082;SHT31;58740;50.672;18.690;2023-03-05T11:55:27;2.16;69.52
71082;SHT31;58740;50.672;18.690;2023-03-05T12:00:57;2.20;70.18
71082;SHT31;58740;50.672;18.690;2023-03-05T12:03:31;2.26;70.31
71082;SHT31;58740;50.672;18.690;2023-03-05T12:08:58;2.34;69.68
71082;SHT31;58740;50.672;18.690;2023-03-05T12:11:33;2.34;69.52
71082;SHT31;58740;50.672;18.690;2023-03-05T12:14:13;2.34;69.71
71082;SHT31;58740;50.672;18.690;2023-03-05T12:19:56;2.32;69.31
71082;SHT31;58740;50.672;18.690;2023-03-05T12:22:36;2.35;69.52
71082;SHT31;58740;50.672;18.690;2023-03-05T12:25:24;2.38;69.41
71082;SHT31;58740;50.672;18.690;2023-03-05T12:27:58;2.42;69.32
71082;SHT31;58740;50.672;18.690;2023-03-05T12:33:02;2.40;68.99
71082;SHT31;58740;50.672;18.690;2023-03-05T12:35:36;2.40;68.64
71082;SHT31;58740;50.672;18.690;2023-03-05T12:38:27;2.36;68.49
71082;SHT31;58740;50.672;18.690;2023-03-05T12:46:32;2.24;68.73
71082;SHT31;58740;50.672;18.690;2023-03-05T12:51:48;2.22;68.79
71082;SHT31;58740;50.672;18.690;2023-03-05T12:54:22;2.25;68.97
71082;SHT31;58740;50.672;18.690;2023-03-05T12:56:58;2.28;69.04
71082;SHT31;58740;50.672;18.690;2023-03-05T12:59:37;2.31;68.95
71082;SHT31;58740;50.672;18.690;2023-03-05T13:02:18;2.30;68.78
71082;SHT31;58740;50.672;18.690;2023-03-05T13:04:56;2.29;68.91
71082;SHT31;58740;50.672;18.690;2023-03-05T13:07:27;2.27;68.98
71082;SHT31;58740;50.672;18.690;2023-03-05T13:09:55;2.25;69.31
71082;SHT31;58740;50.672;18.690;2023-03-05T13:12:26;2.24;69.56
71082;SHT31;58740;50.672;18.690;2023-03-05T13:14:59;2.21;69.67
71082;SHT31;58740;50.672;18.690;2023-03-05T13:17:32;2.21;70.04
71082;SHT31;58740;50.672;18.690;2023-03-05T13:20:27;2.21;70.12
71082;SHT31;58740;50.672;18.690;2023-03-05T13:25:42;2.27;70.49
71082;SHT31;58740;50.672;18.690;2023-03-05T13:28:12;2.27;70.57
71082;SHT31;58740;50.672;18.690;2023-03-05T13:30:43;2.29;70.75
71082;SHT31;58740;50.672;18.690;2023-03-05T13:33:52;2.28;71.07
71082;SHT31;58740;50.672;18.690;2023-03-05T13:36:26;2.23;71.36
71082;SHT31;58740;50.672;18.690;2023-03-05T13:38:54;2.18;71.74
71082;SHT31;58740;50.672;18.690;2023-03-05T13:41:23;2.12;72.25
71082;SHT31;58740;50.672;18.690;2023-03-05T13:43:56;2.07;72.60
71082;SHT31;58740;50.672;18.690;2023-03-05T13:51:48;1.96;73.43
71082;SHT31;58740;50.672;18.690;2023-03-05T13:54:22;1.95;73.62
71082;SHT31;58740;50.672;18.690;2023-03-05T13:56:57;1.97;73.71
71082;SHT31;58740;50.672;18.690;2023-03-05T13:59:33;2.00;73.86
71082;SHT31;58740;50.672;18.690;2023-03-05T14:02:15;1.96;74.01
71082;SHT31;58740;50.672;18.690;2023-03-05T14:05:11;1.94;74.14
71082;SHT31;58740;50.672;18.690;2023-03-05T14:07:41;1.95;74.28
71082;SHT31;58740;50.672;18.690;2023-03-05T14:10:25;1.95;74.43
71082;SHT31;58740;50.672;18.690;2023-03-05T14:13:03;1.93;74.46
71082;SHT31;58740;50.672;18.690;2023-03-05T14:15:41;1.90;74.69
71082;SHT31;58740;50.672;18.690;2023-03-05T14:20:38;1.86;74.83
71082;SHT31;58740;50.672;18.690;2023-03-05T14:23:34;1.84;75.11
71082;SHT31;58740;50.672;18.690;2023-03-05T14:31:54;1.93;75.17
71082;SHT31;58740;50.672;18.690;2023-03-05T14:34:30;1.95;75.30
71082;SHT31;58740;50.672;18.690;2023-03-05T14:37:22;1.98;75.18
71082;SHT31;58740;50.672;18.690;2023-03-05T14:39:59;1.97;75.26
71082;SHT31;58740;50.672;18.690;2023-03-05T14:42:54;1.96;75.28
71082;SHT31;58740;50.672;18.690;2023-03-05T14:45:28;1.95;75.26
71082;SHT31;58740;50.672;18.690;2023-03-05T14:48:11;1.91;75.42
71082;SHT31;58740;50.672;18.690;2023-03-05T14:50:46;1.88;75.52
71082;SHT31;58740;50.672;18.690;2023-03-05T14:53:21;1.86;75.67
71082;SHT31;58740;50.672;18.690;2023-03-05T14:55:53;1.86;75.79
71082;SHT31;58740;50.672;18.690;2023-03-05T14:58:24;1.88;75.84
71082;SHT31;58740;50.672;18.690;2023-03-05T15:00:58;1.89;76.01
71082;SHT31;58740;50.672;18.690;2023-03-05T15:03:26;1.89;76.06
71082;SHT31;58740;50.672;18.690;2023-03-05T15:05:55;1.88;76.15
71082;SHT31;58740;50.672;18.690;2023-03-05T15:08:26;1.85;76.26
71082;SHT31;58740;50.672;18.690;2023-03-05T15:10:58;1.82;76.56
71082;SHT31;58740;50.672;18.690;2023-03-05T15:13:27;1.75;76.95
71082;SHT31;58740;50.672;18.690;2023-03-05T15:15:55;1.65;76.90
71082;SHT31;58740;50.672;18.690;2023-03-05T15:18:22;1.61;76.85
71082;SHT31;58740;50.672;18.690;2023-03-05T15:20:50;1.60;76.66
71082;SHT31;58740;50.672;18.690;2023-03-05T15:23:19;1.61;76.49
71082;SHT31;58740;50.672;18.690;2023-03-05T15:25:47;1.61;76.44
71082;SHT31;58740;50.672;18.690;2023-03-05T15:28:16;1.63;76.34
71082;SHT31;58740;50.672;18.690;2023-03-05T15:30:44;1.64;76.29
71082;SHT31;58740;50.672;18.690;2023-03-05T15:33:15;1.64;76.24
71082;SHT31;58740;50.672;18.690;2023-03-05T15:35:44;1.64;76.30
71082;SHT31;58740;50.672;18.690;2023-03-05T15:38:12;1.63;76.26
71082;SHT31;58740;50.672;18.690;2023-03-05T15:40:41;1.58;76.32
71082;SHT31;58740;50.672;18.690;2023-03-05T15:43:10;1.53;76.42
71082;SHT31;58740;50.672;18.690;2023-03-05T15:45:38;1.47;76.45
71082;SHT31;58740;50.672;18.690;2023-03-05T15:48:06;1.45;76.48
71082;SHT31;58740;50.672;18.690;2023-03-05T15:50:34;1.45;76.44
71082;SHT31;58740;50.672;18.690;2023-03-05T15:53:02;1.43;76.35
71082;SHT31;58740;50.672;18.690;2023-03-05T15:55:30;1.43;76.47
71082;SHT31;58740;50.672;18.690;2023-03-05T15:57:58;1.46;76.56
71082;SHT31;58740;50.672;18.690;2023-03-05T16:00:28;1.46;76.60
71082;SHT31;58740;50.672;18.690;2023-03-05T16:02:57;1.44;76.60
71082;SHT31;58740;50.672;18.690;2023-03-05T16:05:25;1.42;76.60
71082;SHT31;58740;50.672;18.690;2023-03-05T16:07:53;1.37;76.57
71082;SHT31;58740;50.672;18.690;2023-03-05T16:10:23;1.33;76.60
71082;SHT31;58740;50.672;18.690;2023-03-05T16:13:05;1.29;76.64
71082;SHT31;58740;50.672;18.690;2023-03-05T16:15:38;1.24;76.76
71082;SHT31;58740;50.672;18.690;2023-03-05T16:18:09;1.21;76.87
71082;SHT31;58740;50.672;18.690;2023-03-05T16:20:42;1.22;76.88
71082;SHT31;58740;50.672;18.690;2023-03-05T16:23:10;1.22;76.88
71082;SHT31;58740;50.672;18.690;2023-03-05T16:25:38;1.24;76.89
71082;SHT31;58740;50.672;18.690;2023-03-05T16:28:06;1.27;76.80
71082;SHT31;58740;50.672;18.690;2023-03-05T16:30:34;1.27;76.75
71082;SHT31;58740;50.672;18.690;2023-03-05T16:33:02;1.24;76.71
71082;SHT31;58740;50.672;18.690;2023-03-05T16:35:30;1.22;76.75
71082;SHT31;58740;50.672;18.690;2023-03-05T16:37:59;1.19;76.75
71082;SHT31;58740;50.672;18.690;2023-03-05T16:40:27;1.17;76.73
71082;SHT31;58740;50.672;18.690;2023-03-05T16:43:15;1.16;76.72
71082;SHT31;58740;50.672;18.690;2023-03-05T16:45:42;1.16;76.62
71082;SHT31;58740;50.672;18.690;2023-03-05T16:48:10;1.14;76.64
71082;SHT31;58740;50.672;18.690;2023-03-05T16:50:38;1.15;76.69
71082;SHT31;58740;50.672;18.690;2023-03-05T16:53:06;1.14;76.70
71082;SHT31;58740;50.672;18.690;2023-03-05T16:55:35;1.18;76.66
71082;SHT31;58740;50.672;18.690;2023-03-05T16:58:04;1.18;76.60
71082;SHT31;58740;50.672;18.690;2023-03-05T17:00:32;1.19;76.61
71082;SHT31;58740;50.672;18.690;2023-03-05T17:03:00;1.21;76.63
71082;SHT31;58740;50.672;18.690;2023-03-05T17:05:28;1.20;76.59
71082;SHT31;58740;50.672;18.690;2023-03-05T17:07:56;1.18;76.62
71082;SHT31;58740;50.672;18.690;2023-03-05T17:10:24;1.15;76.66
71082;SHT31;58740;50.672;18.690;2023-03-05T17:12:52;1.15;76.66
71082;SHT31;58740;50.672;18.690;2023-03-05T17:15:21;1.14;76.65
71082;SHT31;58740;50.672;18.690;2023-03-05T17:17:50;1.15;76.64
71082;SHT31;58740;50.672;18.690;2023-03-05T17:20:18;1.17;76.70
71082;SHT31;58740;50.672;18.690;2023-03-05T17:22:46;1.18;76.70
71082;SHT31;58740;50.672;18.690;2023-03-05T17:25:14;1.19;76.70
71082;SHT31;58740;50.672;18.690;2023-03-05T17:27:42;1.22;76.65
71082;SHT31;58740;50.672;18.690;2023-03-05T17:30:10;1.23;76.61
71082;SHT31;58740;50.672;18.690;2023-03-05T17:32:39;1.22;76.52
71082;SHT31;58740;50.672;18.690;2023-03-05T17:35:26;1.20;76.59
71082;SHT31;58740;50.672;18.690;2023-03-05T17:37:54;1.15;76.62
71082;SHT31;58740;50.672;18.690;2023-03-05T17:40:22;1.12;76.70